Time;durP1;ratioP1;P1;durP2;ratioP2;P2;SDS_P1;SDS_P2;PMS_P1;PMS_P2;Temp;Humidity;BMP_temperature;BMP_pressure;BME280_temperature;BME280_humidity;BME280_pressure;Samples;Min_cycle;Max_cycle;Signal;HPM_P1;HPM_P2
2023/07/21 00:01:07;;;;;;;8.40;7.60;;;14.90;80.40;;;;;;5072351;28;20176;-87
2023/07/21 00:03:34;;;;;;;8.30;7.60;;;14.80;80.30;;;;;;5072153;28;20206;-88
2023/07/21 00:06:00;;;;;;;8.48;7.78;;;14.80;80.30;;;;;;5072879;28;20191;-88
2023/07/21 00:08:29;;;;;;;11.57;7.93;;;14.70;80.70;;;;;;5072273;28;20266;-88
2023/07/21 00:10:56;;;;;;;8.50;7.80;;;14.70;80.60;;;;;;5072068;28;20172;-88
2023/07/21 00:13:22;;;;;;;8.48;7.88;;;14.70;80.50;;;;;;5071950;28;20249;-88
2023/07/21 00:15:49;;;;;;;9.20;8.38;;;14.70;80.40;;;;;;5071357;28;20171;-88
2023/07/21 00:18:15;;;;;;;9.40;8.48;;;14.50;80.60;;;;;;5071915;28;20174;-88
2023/07/21 00:20:40;;;;;;;10.57;8.48;;;14.30;81.60;;;;;;5072017;28;21687;-88
2023/07/21 00:23:06;;;;;;;8.10;7.60;;;14.20;81.90;;;;;;5071953;28;20557;-88
2023/07/21 00:25:31;;;;;;;9.40;7.10;;;14.00;83.10;;;;;;5073097;28;20181;-88
2023/07/21 00:27:57;;;;;;;7.63;6.88;;;13.90;83.80;;;;;;5071785;28;20199;-89
2023/07/21 00:30:23;;;;;;;8.35;7.43;;;13.80;84.00;;;;;;5071870;28;20661;-88
2023/07/21 00:32:49;;;;;;;7.53;6.95;;;13.90;84.00;;;;;;5072740;28;20210;-89
2023/07/21 00:35:15;;;;;;;8.13;7.30;;;13.80;84.30;;;;;;5071770;28;20297;-88
2023/07/21 00:37:41;;;;;;;7.82;6.50;;;13.70;84.70;;;;;;5071785;28;20182;-88
2023/07/21 00:40:18;;;;;;;7.78;6.70;;;13.70;85.00;;;;;;5071847;28;20181;-88
2023/07/21 00:42:44;;;;;;;6.13;5.63;;;13.50;85.10;;;;;;5072370;28;20175;-89
2023/07/21 00:45:14;;;;;;;8.10;5.38;;;13.30;85.60;;;;;;5071630;28;20572;-88
2023/07/21 00:47:40;;;;;;;8.68;5.30;;;13.30;86.20;;;;;;5071496;28;20195;-88
2023/07/21 00:50:07;;;;;;;11.67;5.43;;;13.20;86.50;;;;;;5071721;28;20171;-89
2023/07/21 00:52:33;;;;;;;12.43;6.07;;;13.20;86.50;;;;;;5071834;28;20647;-88
2023/07/21 00:55:00;;;;;;;6.33;5.60;;;13.40;86.60;;;;;;5071598;28;20199;-88
2023/07/21 00:57:25;;;;;;;6.23;5.53;;;13.50;86.30;;;;;;5071490;28;20266;-88
2023/07/21 00:59:51;;;;;;;8.83;5.87;;;13.50;85.80;;;;;;5071819;28;20258;-88
2023/07/21 01:02:17;;;;;;;9.05;6.65;;;13.50;85.40;;;;;;5071621;28;20662;-88
2023/07/21 01:04:44;;;;;;;6.85;6.25;;;13.50;84.80;;;;;;5071550;28;20773;-89
2023/07/21 01:07:10;;;;;;;7.03;6.13;;;13.40;84.50;;;;;;5072026;28;20205;-89
2023/07/21 01:09:38;;;;;;;6.63;6.10;;;13.40;84.30;;;;;;5071408;28;20214;-88
2023/07/21 01:12:05;;;;;;;14.97;6.43;;;13.30;84.20;;;;;;5071655;28;20176;-88
2023/07/21 01:14:30;;;;;;;6.77;6.23;;;13.40;84.00;;;;;;5071369;28;20191;-87
2023/07/21 01:16:59;;;;;;;7.17;6.67;;;13.30;83.80;;;;;;5071450;28;20205;-89
2023/07/21 01:19:26;;;;;;;6.80;6.30;;;13.30;83.50;;;;;;5071944;28;20180;-88
2023/07/21 01:21:58;;;;;;;8.37;6.27;;;13.30;83.20;;;;;;5071671;28;20202;-88
2023/07/21 01:24:29;;;;;;;7.80;7.10;;;13.30;83.10;;;;;;5071452;28;20617;-88
2023/07/21 01:26:56;;;;;;;6.60;6.00;;;13.30;83.00;;;;;;5073041;28;20191;-88
2023/07/21 01:29:23;;;;;;;7.67;6.90;;;13.20;83.10;;;;;;5074978;28;20175;-88
2023/07/21 01:31:50;;;;;;;7.20;6.60;;;13.20;83.00;;;;;;5074754;28;20669;-88
2023/07/21 01:34:17;;;;;;;8.27;7.47;;;13.20;82.80;;;;;;5076302;28;20282;-88
2023/07/21 01:36:43;;;;;;;7.70;7.07;;;13.20;82.70;;;;;;5077058;28;20195;-88
2023/07/21 01:39:10;;;;;;;7.33;6.83;;;13.10;82.80;;;;;;5077214;28;20229;-88
2023/07/21 01:41:37;;;;;;;7.80;7.03;;;13.00;83.00;;;;;;5077119;28;20270;-88
2023/07/21 01:44:03;;;;;;;10.50;6.73;;;13.00;83.10;;;;;;5076589;28;20198;-88
2023/07/21 01:46:29;;;;;;;7.20;6.50;;;13.00;83.00;;;;;;5076781;28;20221;-88
2023/07/21 01:48:55;;;;;;;7.67;6.87;;;13.00;83.00;;;;;;5076723;28;20171;-88
2023/07/21 01:51:22;;;;;;;10.30;7.30;;;13.00;83.00;;;;;;5078185;28;20179;-88
2023/07/21 01:53:54;;;;;;;7.83;7.20;;;13.00;83.10;;;;;;5077036;28;20200;-88
2023/07/21 01:56:38;;;;;;;9.13;7.47;;;13.00;83.40;;;;;;5077006;28;20274;-88
2023/07/21 01:59:07;;;;;;;8.53;7.17;;;13.00;83.40;;;;;;5076724;28;20183;-88
2023/07/21 02:01:34;;;;;;;8.23;7.23;;;13.00;83.60;;;;;;5076307;28;20557;-88
2023/07/21 02:04:00;;;;;;;7.63;6.83;;;13.00;83.80;;;;;;5075754;28;20202;-88
2023/07/21 02:06:26;;;;;;;8.83;6.47;;;13.00;84.60;;;;;;5076881;28;20196;-88
2023/07/21 02:08:52;;;;;;;7.73;6.00;;;12.90;85.60;;;;;;5077713;28;20171;-88
2023/07/21 02:11:19;;;;;;;6.47;5.90;;;12.90;86.50;;;;;;5076391;28;20271;-87
2023/07/21 02:13:45;;;;;;;6.60;5.87;;;12.80;87.50;;;;;;5076188;28;20196;-88
2023/07/21 02:16:10;;;;;;;8.30;5.33;;;12.80;88.00;;;;;;5076381;28;20237;-88
2023/07/21 02:18:39;;;;;;;9.30;5.10;;;12.70;88.60;;;;;;5075602;28;20187;-88
2023/07/21 02:21:04;;;;;;;6.70;5.10;;;12.80;89.10;;;;;;5075085;28;20286;-88
2023/07/21 02:23:31;;;;;;;6.50;4.83;;;12.80;89.20;;;;;;5075452;28;20290;-88
2023/07/21 02:25:57;;;;;;;10.43;5.23;;;12.80;89.30;;;;;;5077068;28;20175;-88
2023/07/21 02:28:23;;;;;;;6.03;5.07;;;12.80;89.20;;;;;;5075931;28;20187;-88
2023/07/21 02:31:02;;;;;;;5.37;4.83;;;12.60;89.20;;;;;;5075803;28;20179;-88
2023/07/21 02:33:28;;;;;;;8.90;5.00;;;12.50;89.50;;;;;;5075765;28;20192;-88
2023/07/21 02:35:54;;;;;;;8.73;5.33;;;12.50;89.90;;;;;;5076822;28;20176;-88
2023/07/21 02:38:20;;;;;;;11.30;5.33;;;12.60;90.10;;;;;;5074624;28;20183;-88
2023/07/21 02:40:46;;;;;;;9.33;5.53;;;12.60;90.30;;;;;;5075132;28;20193;-88
2023/07/21 02:43:12;;;;;;;10.53;5.30;;;12.60;90.40;;;;;;5075057;28;20221;-88
2023/07/21 02:45:38;;;;;;;9.63;5.27;;;12.70;90.60;;;;;;5076578;28;20168;-88
2023/07/21 02:48:07;;;;;;;6.47;5.40;;;12.70;90.70;;;;;;5075504;28;20221;-88
2023/07/21 02:50:33;;;;;;;8.53;4.97;;;12.70;90.80;;;;;;5074898;28;20175;-89
2023/07/21 02:52:59;;;;;;;11.93;5.07;;;12.80;90.90;;;;;;5075141;28;20258;-87
2023/07/21 02:55:25;;;;;;;8.90;5.33;;;12.80;90.90;;;;;;5075799;28;20199;-88
2023/07/21 02:57:51;;;;;;;6.13;4.90;;;12.90;91.00;;;;;;5075084;28;20182;-88
2023/07/21 03:00:17;;;;;;;6.77;5.03;;;12.90;90.90;;;;;;5075510;28;20178;-87
2023/07/21 03:02:43;;;;;;;7.83;5.00;;;13.00;90.90;;;;;;5074889;28;20175;-88
2023/07/21 03:05:09;;;;;;;12.73;5.07;;;13.10;90.80;;;;;;5074722;28;20203;-88
2023/07/21 03:07:34;;;;;;;10.60;4.40;;;13.20;90.70;;;;;;5075908;28;20558;-88
2023/07/21 03:10:00;;;;;;;8.47;5.63;;;13.20;90.50;;;;;;5075427;28;20171;-88
2023/07/21 03:12:25;;;;;;;5.40;4.70;;;13.10;90.30;;;;;;5074585;28;20179;-88
2023/07/21 03:14:51;;;;;;;10.03;5.20;;;13.10;90.00;;;;;;5075534;28;20613;-88
2023/07/21 03:17:16;;;;;;;8.47;4.87;;;13.00;89.80;;;;;;5075591;28;20714;-88
2023/07/21 03:19:42;;;;;;;5.30;4.53;;;13.00;89.80;;;;;;5074268;28;20183;-88
2023/07/21 03:22:08;;;;;;;11.63;5.17;;;13.00;89.70;;;;;;5074329;28;20203;-88
2023/07/21 03:24:34;;;;;;;6.20;4.30;;;12.90;89.50;;;;;;5073977;28;20214;-88
2023/07/21 03:27:01;;;;;;;6.63;4.90;;;13.00;89.50;;;;;;5075688;28;20676;-88
2023/07/21 03:29:26;;;;;;;5.80;5.10;;;13.00;89.50;;;;;;5075204;28;20172;-88
2023/07/21 03:31:52;;;;;;;7.97;5.73;;;13.00;89.10;;;;;;5074170;28;20266;-88
2023/07/21 03:34:18;;;;;;;10.70;5.80;;;13.10;88.90;;;;;;5074896;28;20211;-88
2023/07/21 03:36:43;;;;;;;7.17;6.50;;;13.20;88.40;;;;;;5075383;28;20232;-88
2023/07/21 03:39:09;;;;;;;7.60;6.40;;;13.20;88.00;;;;;;5073836;28;20221;-88
2023/07/21 03:41:35;;;;;;;9.17;6.40;;;13.10;87.80;;;;;;5074105;28;20252;-88
2023/07/21 03:44:00;;;;;;;7.50;6.20;;;12.90;87.60;;;;;;5073621;28;20258;-88
2023/07/21 03:46:26;;;;;;;6.50;5.90;;;13.00;87.30;;;;;;5073793;28;20191;-88
2023/07/21 03:48:51;;;;;;;12.10;6.60;;;13.10;87.20;;;;;;5074068;28;20172;-88
2023/07/21 03:51:17;;;;;;;11.40;5.97;;;13.20;86.90;;;;;;5073728;28;20225;-88
2023/07/21 03:53:42;;;;;;;7.03;6.20;;;13.30;86.60;;;;;;5073615;28;20249;-88
2023/07/21 03:56:08;;;;;;;11.70;6.63;;;13.50;86.20;;;;;;5073951;28;20278;-89
2023/07/21 03:58:33;;;;;;;8.97;6.13;;;13.70;85.90;;;;;;5074928;28;20171;-88
2023/07/21 04:00:59;;;;;;;6.67;6.07;;;13.80;85.60;;;;;;5074220;28;20217;-88
2023/07/21 04:03:25;;;;;;;9.17;6.60;;;13.80;85.40;;;;;;5073626;28;20589;-88
2023/07/21 04:05:51;;;;;;;6.93;6.33;;;13.90;85.10;;;;;;5073448;28;20258;-88
2023/07/21 04:08:18;;;;;;;7.28;6.47;;;14.00;84.90;;;;;;5073021;28;20204;-88
2023/07/21 04:10:44;;;;;;;6.88;6.25;;;14.10;84.50;;;;;;5073033;28;20175;-88
2023/07/21 04:13:09;;;;;;;6.70;6.00;;;14.20;84.00;;;;;;5073445;28;20178;-88
2023/07/21 04:15:35;;;;;;;8.05;7.32;;;14.10;83.80;;;;;;5073268;28;20182;-88
2023/07/21 04:18:01;;;;;;;9.17;6.80;;;14.20;83.80;;;;;;5072970;28;20175;-88
2023/07/21 04:20:30;;;;;;;10.30;7.30;;;14.20;83.90;;;;;;5073518;28;20187;-88
2023/07/21 04:22:55;;;;;;;7.68;6.88;;;14.20;83.90;;;;;;5072865;28;20210;-88
2023/07/21 04:25:21;;;;;;;7.10;6.50;;;14.30;84.10;;;;;;5073162;28;20202;-88
2023/07/21 04:27:50;;;;;;;9.57;6.93;;;14.30;84.00;;;;;;5073182;28;20202;-88
2023/07/21 04:30:16;;;;;;;8.82;6.90;;;14.20;84.10;;;;;;5072854;28;20266;-88
2023/07/21 04:32:41;;;;;;;8.60;6.63;;;14.20;84.20;;;;;;5072614;28;20257;-88
2023/07/21 04:35:10;;;;;;;7.57;6.88;;;14.10;84.30;;;;;;5073184;28;20198;-88
2023/07/21 04:37:36;;;;;;;9.25;6.65;;;14.10;84.50;;;;;;5073010;28;20179;-88
2023/07/21 04:40:04;;;;;;;12.77;7.93;;;14.00;84.50;;;;;;5073110;28;20187;-88
2023/07/21 04:42:30;;;;;;;15.80;7.55;;;14.00;84.60;;;;;;5073058;28;20266;-88
2023/07/21 04:44:56;;;;;;;14.35;7.30;;;14.10;84.80;;;;;;5072902;28;20277;-88
2023/07/21 04:47:22;;;;;;;8.25;6.95;;;14.10;84.60;;;;;;5073292;28;20286;-88
2023/07/21 04:49:48;;;;;;;10.13;7.25;;;14.20;84.40;;;;;;5072875;28;20182;-88
2023/07/21 04:52:14;;;;;;;9.23;7.18;;;14.30;84.40;;;;;;5072781;28;20176;-88
2023/07/21 04:54:39;;;;;;;8.93;7.38;;;14.40;84.10;;;;;;5072765;28;20195;-88
2023/07/21 04:57:05;;;;;;;9.50;7.45;;;14.40;84.30;;;;;;5073163;28;20529;-88
2023/07/21 04:59:31;;;;;;;10.77;7.43;;;14.40;84.40;;;;;;5072792;28;20182;-88
2023/07/21 05:01:57;;;;;;;9.07;7.93;;;14.30;84.50;;;;;;5074403;28;20175;-88
2023/07/21 05:04:22;;;;;;;9.52;7.57;;;14.30;85.00;;;;;;5077745;28;20207;-88
2023/07/21 05:06:48;;;;;;;13.10;8.02;;;14.20;86.10;;;;;;5076576;28;20206;-88
2023/07/21 05:09:14;;;;;;;8.20;7.15;;;14.30;86.50;;;;;;5077860;28;20211;-88
2023/07/21 05:11:42;;;;;;;9.82;7.28;;;14.30;87.10;;;;;;5076830;28;20643;-88
2023/07/21 05:14:08;;;;;;;9.52;6.40;;;14.30;88.00;;;;;;5076304;28;20285;-88
2023/07/21 05:16:37;;;;;;;7.53;6.65;;;14.30;88.80;;;;;;5076778;28;20181;-88
2023/07/21 05:19:03;;;;;;;7.35;6.28;;;14.30;89.20;;;;;;5075985;28;20558;-88
2023/07/21 05:21:29;;;;;;;10.68;5.90;;;14.40;89.30;;;;;;5076078;28;20298;-88
2023/07/21 05:23:54;;;;;;;8.40;6.07;;;14.30;89.40;;;;;;5077574;28;20231;-88
2023/07/21 05:26:21;;;;;;;10.25;5.90;;;14.40;89.50;;;;;;5075739;28;20618;-88
2023/07/21 05:28:48;;;;;;;8.30;5.40;;;14.40;89.60;;;;;;5077506;28;20163;-88
2023/07/21 05:31:14;;;;;;;8.70;5.20;;;14.50;89.80;;;;;;5075863;28;20181;-88
2023/07/21 05:33:39;;;;;;;6.25;5.13;;;14.40;89.70;;;;;;5075440;28;20274;-88
2023/07/21 05:36:07;;;;;;;7.57;5.00;;;14.40;89.60;;;;;;5077127;28;20703;-88
2023/07/21 05:38:34;;;;;;;5.13;4.72;;;14.50;89.60;;;;;;5075745;28;20171;-88
2023/07/21 05:41:00;;;;;;;11.40;4.93;;;14.50;89.40;;;;;;5075759;28;20171;-88
2023/07/21 05:43:26;;;;;;;7.15;4.82;;;14.50;89.40;;;;;;5075786;28;20540;-88
2023/07/21 05:45:51;;;;;;;7.85;5.32;;;14.60;89.40;;;;;;5076895;28;20293;-88
2023/07/21 05:48:17;;;;;;;6.60;5.22;;;14.40;89.20;;;;;;5075731;28;20280;-88
2023/07/21 05:50:42;;;;;;;6.50;4.45;;;14.40;89.30;;;;;;5076245;28;20257;-88
2023/07/21 05:53:08;;;;;;;12.73;4.90;;;14.50;89.30;;;;;;5075444;28;20813;-88
2023/07/21 05:55:33;;;;;;;7.68;4.95;;;14.40;89.00;;;;;;5075539;28;20262;-88
2023/07/21 05:57:59;;;;;;;13.02;5.47;;;14.40;89.10;;;;;;5075379;28;20182;-88
2023/07/21 06:00:25;;;;;;;5.05;4.65;;;14.50;89.10;;;;;;5075778;28;20682;-88
2023/07/21 06:02:51;;;;;;;8.50;5.47;;;14.60;89.10;;;;;;5076845;28;20642;-88
2023/07/21 06:05:17;;;;;;;9.57;5.57;;;14.60;88.80;;;;;;5075626;28;20201;-88
2023/07/21 06:07:44;;;;;;;5.72;5.07;;;14.60;88.80;;;;;;5076794;28;20260;-88
2023/07/21 06:10:10;;;;;;;8.60;4.95;;;14.70;88.50;;;;;;5075245;28;20198;-88
2023/07/21 06:12:36;;;;;;;5.78;5.13;;;14.80;88.20;;;;;;5076207;28;20168;-88
2023/07/21 06:15:01;;;;;;;5.63;4.95;;;14.80;87.80;;;;;;5075152;28;20249;-88
2023/07/21 06:17:28;;;;;;;9.48;8.57;;;14.80;87.50;;;;;;5075412;28;20226;-88
2023/07/21 06:19:54;;;;;;;13.10;12.05;;;14.80;86.90;;;;;;5075404;28;20557;-88
2023/07/21 06:22:19;;;;;;;7.95;7.25;;;14.90;86.50;;;;;;5075401;28;20191;-88
2023/07/21 06:24:45;;;;;;;9.82;7.30;;;14.90;86.30;;;;;;5075077;28;20236;-88
2023/07/21 06:27:14;;;;;;;9.80;7.05;;;14.90;86.30;;;;;;5075250;28;20285;-88
2023/07/21 06:29:40;;;;;;;8.43;7.55;;;15.00;86.50;;;;;;5076015;28;20164;-88
2023/07/21 06:32:06;;;;;;;8.52;7.50;;;15.10;86.10;;;;;;5074924;28;20555;-89
2023/07/21 06:34:31;;;;;;;9.30;7.30;;;15.10;86.20;;;;;;5074635;28;20191;-88
2023/07/21 06:36:57;;;;;;;12.30;11.48;;;15.10;86.50;;;;;;5075098;28;20704;-88
2023/07/21 06:39:23;;;;;;;14.48;12.90;;;15.10;86.60;;;;;;5076053;28;20289;-88
2023/07/21 06:41:49;;;;;;;14.52;13.40;;;15.20;86.60;;;;;;5075667;28;20665;-87
2023/07/21 06:44:15;;;;;;;15.55;14.35;;;15.20;86.40;;;;;;5074800;28;20195;-88
2023/07/21 06:46:44;;;;;;;16.45;14.73;;;15.20;86.10;;;;;;5073789;28;20265;-87
2023/07/21 06:49:10;;;;;;;10.27;6.40;;;15.30;86.20;;;;;;5073953;28;20267;-87
2023/07/21 06:51:36;;;;;;;8.77;6.13;;;15.30;85.70;;;;;;5074359;28;20203;-88
2023/07/21 06:54:03;;;;;;;8.75;5.75;;;15.40;85.50;;;;;;5074417;28;20658;-88
2023/07/21 06:56:30;;;;;;;10.52;6.95;;;15.60;86.00;;;;;;5075075;28;20194;-89
2023/07/21 06:58:55;;;;;;;8.32;6.85;;;15.60;85.10;;;;;;5074647;28;20182;-89
2023/07/21 07:01:21;;;;;;;8.20;6.53;;;15.60;84.40;;;;;;5074498;28;20179;-89
2023/07/21 07:03:46;;;;;;;7.45;6.60;;;15.70;85.00;;;;;;5074174;28;20191;-89
2023/07/21 07:06:12;;;;;;;6.97;6.38;;;15.90;85.40;;;;;;5074654;28;20262;-89
2023/07/21 07:08:38;;;;;;;7.90;6.55;;;16.00;85.20;;;;;;5075370;28;20569;-89
2023/07/21 07:11:03;;;;;;;9.02;6.30;;;16.10;85.00;;;;;;5074482;28;20180;-89
2023/07/21 07:13:29;;;;;;;10.40;6.55;;;16.20;85.00;;;;;;5075696;28;20193;-89
2023/07/21 07:15:54;;;;;;;9.48;7.30;;;16.30;84.90;;;;;;5075639;28;20187;-89
2023/07/21 07:18:20;;;;;;;12.63;7.25;;;16.20;83.80;;;;;;5074184;28;20259;-89
2023/07/21 07:20:53;;;;;;;7.80;7.10;;;16.20;83.80;;;;;;5073913;28;20572;-89
2023/07/21 07:23:19;;;;;;;11.20;8.02;;;16.30;83.60;;;;;;5075494;28;20204;-89
2023/07/21 07:25:50;;;;;;;8.88;8.10;;;16.20;82.50;;;;;;5073678;28;20273;-88
2023/07/21 07:28:16;;;;;;;10.13;6.35;;;16.20;81.90;;;;;;5075122;28;20191;-88
2023/07/21 07:30:42;;;;;;;8.60;7.90;;;16.40;82.70;;;;;;5074259;28;20210;-89
2023/07/21 07:33:08;;;;;;;13.32;8.60;;;16.30;81.40;;;;;;5073424;28;20166;-88
2023/07/21 07:35:33;;;;;;;8.30;7.00;;;16.40;82.10;;;;;;5075322;28;20216;-89
2023/07/21 07:37:59;;;;;;;8.23;7.63;;;16.50;82.30;;;;;;5073620;28;20178;-89
2023/07/21 07:40:25;;;;;;;12.95;8.65;;;16.60;82.20;;;;;;5074861;28;20313;-88
2023/07/21 07:42:50;;;;;;;11.50;8.10;;;16.70;81.80;;;;;;5073301;28;20231;-89
2023/07/21 07:45:16;;;;;;;13.70;7.68;;;16.70;80.90;;;;;;5073695;28;20204;-89
2023/07/21 07:47:44;;;;;;;9.05;8.07;;;16.80;81.00;;;;;;5073799;28;20281;-88
2023/07/21 07:50:10;;;;;;;11.80;9.00;;;17.10;82.00;;;;;;5074931;28;20199;-89
2023/07/21 07:52:36;;;;;;;10.85;9.60;;;16.90;80.90;;;;;;5073542;28;20689;-89
2023/07/21 07:55:03;;;;;;;9.02;8.15;;;16.90;79.70;;;;;;5073962;28;20194;-89
2023/07/21 07:57:28;;;;;;;9.93;9.00;;;17.10;80.60;;;;;;5073855;28;20175;-90
2023/07/21 07:59:54;;;;;;;8.98;7.90;;;17.20;80.20;;;;;;5075040;28;20194;-88
2023/07/21 08:02:20;;;;;;;13.15;7.78;;;17.20;79.70;;;;;;5073121;28;20175;-89
2023/07/21 08:04:45;;;;;;;19.45;17.80;;;17.20;80.40;;;;;;5074421;28;20226;-88
2023/07/21 08:07:11;;;;;;;19.77;18.35;;;17.20;79.60;;;;;;5073530;28;20203;-88
2023/07/21 08:09:36;;;;;;;22.00;20.40;;;17.30;78.10;;;;;;5073594;28;20171;-88
2023/07/21 08:12:02;;;;;;;22.02;20.42;;;17.30;78.00;;;;;;5073295;28;20171;-88
2023/07/21 08:14:28;;;;;;;24.73;22.92;;;17.50;76.30;;;;;;5074424;28;20187;-88
2023/07/21 08:16:53;;;;;;;25.55;23.73;;;17.50;74.40;;;;;;5073362;28;20264;-89
2023/07/21 08:19:19;;;;;;;25.45;23.33;;;17.40;74.70;;;;;;5073807;28;20204;-89
2023/07/21 08:21:47;;;;;;;23.40;21.48;;;17.50;75.80;;;;;;5073276;28;20195;-88
2023/07/21 08:24:15;;;;;;;25.98;24.13;;;17.70;74.50;;;;;;5074169;28;20203;-88
2023/07/21 08:26:41;;;;;;;26.23;24.42;;;17.70;71.70;;;;;;5073430;28;20245;-89
2023/07/21 08:29:08;;;;;;;25.38;23.38;;;17.80;72.20;;;;;;5073319;28;20171;-88
2023/07/21 08:31:34;;;;;;;12.43;11.30;;;17.90;71.50;;;;;;5073157;28;20655;-89
2023/07/21 08:34:00;;;;;;;13.50;12.48;;;18.20;73.40;;;;;;5072810;28;20202;-89
2023/07/21 08:36:25;;;;;;;13.75;12.65;;;18.40;71.50;;;;;;5073931;28;20685;-89
2023/07/21 08:38:51;;;;;;;15.15;13.98;;;18.50;71.30;;;;;;5078506;28;20186;-89
2023/07/21 08:41:19;;;;;;;13.25;11.93;;;18.40;68.80;;;;;;5077700;28;20175;-88
2023/07/21 08:43:46;;;;;;;13.70;12.55;;;18.80;71.10;;;;;;5077670;28;20214;-88
2023/07/21 08:46:11;;;;;;;15.30;14.38;;;18.90;70.40;;;;;;5077556;28;20171;-87
2023/07/21 08:48:39;;;;;;;14.32;13.43;;;19.10;67.50;;;;;;5076785;28;20179;-88
2023/07/21 08:51:05;;;;;;;15.30;13.82;;;19.00;69.30;;;;;;5077455;28;20190;-88
2023/07/21 08:53:31;;;;;;;13.10;12.20;;;19.00;69.30;;;;;;5077764;28;20683;-88
2023/07/21 08:55:59;;;;;;;14.65;13.45;;;19.20;68.60;;;;;;5076824;28;20702;-87
2023/07/21 08:58:25;;;;;;;17.00;15.70;;;19.50;69.40;;;;;;5076220;28;20521;-88
2023/07/21 09:00:54;;;;;;;16.17;14.77;;;19.60;65.90;;;;;;5076426;28;20174;-88
2023/07/21 09:03:22;;;;;;;16.15;14.93;;;20.00;67.00;;;;;;5077763;28;20195;-88
2023/07/21 09:05:49;;;;;;;16.38;15.00;;;19.40;64.70;;;;;;5077435;28;20225;-87
2023/07/21 09:08:20;;;;;;;16.48;15.27;;;19.60;67.50;;;;;;5076593;28;20686;-88
2023/07/21 09:10:45;;;;;;;16.88;15.48;;;19.90;65.50;;;;;;5077529;28;20178;-87
2023/07/21 09:13:19;;;;;;;16.77;15.35;;;19.80;66.90;;;;;;5076051;28;20171;-88
2023/07/21 09:15:56;;;;;;;17.15;15.93;;;20.00;66.70;;;;;;5075843;28;20695;-88
2023/07/21 09:18:39;;;;;;;16.70;15.48;;;20.20;66.70;;;;;;5076026;28;20700;-87
2023/07/21 09:21:05;;;;;;;15.35;14.15;;;19.90;66.60;;;;;;5075428;28;20195;-87
2023/07/21 09:23:31;;;;;;;15.25;13.98;;;19.90;64.80;;;;;;5076087;28;20230;-87
2023/07/21 09:25:59;;;;;;;16.45;14.98;;;20.40;65.60;;;;;;5075701;28;20183;-87
2023/07/21 09:28:42;;;;;;;17.45;15.82;;;20.70;63.60;;;;;;5075603;28;20199;-88
2023/07/21 09:31:08;;;;;;;15.60;14.18;;;20.90;64.60;;;;;;5077233;28;20199;-87
2023/07/21 09:33:38;;;;;;;16.52;15.32;;;20.70;61.70;;;;;;5076134;28;20191;-87
2023/07/21 09:36:05;;;;;;;16.42;15.32;;;20.10;61.40;;;;;;5075638;28;20179;-87
2023/07/21 09:38:32;;;;;;;17.52;16.02;;;19.90;63.40;;;;;;5075408;28;20182;-88
2023/07/21 09:41:06;;;;;;;15.70;14.60;;;19.90;63.50;;;;;;5075302;28;20623;-87
2023/07/21 09:43:32;;;;;;;16.05;14.90;;;19.50;61.40;;;;;;5075355;28;20206;-87
2023/07/21 09:46:07;;;;;;;16.67;15.35;;;19.50;64.10;;;;;;5075224;28;20175;-87
2023/07/21 09:48:33;;;;;;;16.85;15.65;;;19.50;62.70;;;;;;5074715;28;20720;-87
2023/07/21 09:51:02;;;;;;;16.38;15.10;;;19.70;64.50;;;;;;5075097;28;20229;-87
2023/07/21 09:53:34;;;;;;;17.17;15.90;;;19.50;62.70;;;;;;5074704;28;20655;-87
2023/07/21 09:56:01;;;;;;;19.58;17.77;;;19.70;63.90;;;;;;5075069;28;20172;-87
2023/07/21 09:58:29;;;;;;;17.20;15.82;;;20.30;61.80;;;;;;5074798;28;20179;-87
2023/07/21 10:01:00;;;;;;;17.40;16.08;;;20.30;61.60;;;;;;5076103;28;20167;-87
2023/07/21 10:03:26;;;;;;;16.33;15.05;;;19.80;61.00;;;;;;5074598;28;20195;-87
2023/07/21 10:05:53;;;;;;;17.00;15.85;;;19.70;62.30;;;;;;5075832;28;20593;-87
2023/07/21 10:08:21;;;;;;;16.73;15.50;;;20.10;63.70;;;;;;5076084;28;20203;-87
2023/07/21 10:10:47;;;;;;;16.35;15.20;;;19.80;61.10;;;;;;5074522;28;20193;-87
2023/07/21 10:13:13;;;;;;;16.80;15.60;;;19.60;62.10;;;;;;5074658;28;20179;-87
2023/07/21 10:15:40;;;;;;;16.52;15.13;;;19.60;62.10;;;;;;5074411;28;20551;-86
2023/07/21 10:18:07;;;;;;;15.85;14.85;;;20.20;62.80;;;;;;5075677;28;20178;-88
2023/07/21 10:20:53;;;;;;;15.73;14.68;;;20.50;62.40;;;;;;5074781;28;20175;-87
2023/07/21 10:23:50;;;;;;;16.40;15.38;;;20.80;60.10;;;;;;5074442;28;20194;-87
2023/07/21 10:26:19;;;;;;;16.83;15.75;;;20.90;60.20;;;;;;5072957;28;20188;-88
2023/07/21 10:28:46;;;;;;;17.27;16.10;;;21.20;60.10;;;;;;5074440;28;20186;-88
2023/07/21 10:31:21;;;;;;;17.08;15.98;;;21.30;58.70;;;;;;5075819;28;20167;-88
2023/07/21 10:34:03;;;;;;;16.52;15.43;;;21.50;58.00;;;;;;5074213;28;20186;-87
2023/07/21 10:36:48;;;;;;;16.23;15.02;;;21.10;56.60;;;;;;5074202;28;20171;-87
2023/07/21 10:39:19;;;;;;;17.55;16.20;;;20.80;55.30;;;;;;5075205;28;20163;-86
2023/07/21 10:41:45;;;;;;;16.77;15.68;;;20.90;58.00;;;;;;5073969;28;20163;-87
2023/07/21 10:44:12;;;;;;;16.20;15.07;;;21.60;54.80;;;;;;5073935;28;20199;-87
2023/07/21 10:46:39;;;;;;;16.20;15.10;;;21.40;57.50;;;;;;5073951;28;20207;-87
2023/07/21 10:49:05;;;;;;;15.75;14.70;;;21.40;56.40;;;;;;5073818;28;20258;-87
2023/07/21 10:51:30;;;;;;;14.88;13.88;;;21.30;55.40;;;;;;5073920;28;20178;-87
2023/07/21 10:53:56;;;;;;;14.18;13.38;;;21.00;56.00;;;;;;5074589;28;20286;-87
2023/07/21 10:56:22;;;;;;;15.30;13.75;;;21.50;55.30;;;;;;5075052;28;20171;-87
2023/07/21 10:58:49;;;;;;;15.25;13.98;;;21.00;55.20;;;;;;5073195;28;20178;-87
2023/07/21 11:01:18;;;;;;;14.93;14.02;;;20.70;55.30;;;;;;5074735;28;20659;-87
2023/07/21 11:03:46;;;;;;;16.02;14.63;;;21.30;56.90;;;;;;5073506;28;20195;-87
2023/07/21 11:06:16;;;;;;;16.10;15.00;;;21.70;56.40;;;;;;5073193;28;20176;-87
2023/07/21 11:08:42;;;;;;;15.63;14.55;;;21.60;58.20;;;;;;5073869;28;20521;-87
2023/07/21 11:11:11;;;;;;;15.63;14.65;;;22.10;55.90;;;;;;5073943;28;20178;-88
2023/07/21 11:13:40;;;;;;;15.60;14.55;;;22.30;59.20;;;;;;5075679;28;20295;-88
2023/07/21 11:16:05;;;;;;;15.98;14.98;;;22.70;56.00;;;;;;5073863;28;20631;-87
2023/07/21 11:18:31;;;;;;;15.80;14.70;;;23.20;56.00;;;;;;5073643;28;20183;-87
2023/07/21 11:20:56;;;;;;;16.63;15.48;;;23.10;56.30;;;;;;5074738;28;20286;-87
2023/07/21 11:23:28;;;;;;;16.45;15.27;;;22.90;56.40;;;;;;5073327;28;20191;-87
2023/07/21 11:26:09;;;;;;;16.00;14.98;;;22.80;56.00;;;;;;5073500;28;20183;-87
2023/07/21 11:28:37;;;;;;;16.35;15.05;;;23.20;57.00;;;;;;5073278;28;20206;-87
2023/07/21 11:31:09;;;;;;;16.10;15.00;;;23.70;54.00;;;;;;5073310;28;20236;-87
2023/07/21 11:33:48;;;;;;;16.98;15.77;;;24.00;51.80;;;;;;5074203;28;20663;-87
2023/07/21 11:36:24;;;;;;;18.60;16.52;;;24.00;51.90;;;;;;5072970;28;20638;-87
2023/07/21 11:39:04;;;;;;;23.20;21.70;;;23.70;52.90;;;;;;5072734;28;20171;-87
2023/07/21 11:41:39;;;;;;;22.95;21.55;;;23.20;54.00;;;;;;5074169;28;20167;-87
2023/07/21 11:44:11;;;;;;;23.10;21.65;;;22.90;53.60;;;;;;5072824;28;20194;-88
2023/07/21 11:46:38;;;;;;;23.67;22.17;;;22.70;55.50;;;;;;5072574;28;20191;-87
2023/07/21 11:49:10;;;;;;;23.95;22.52;;;22.20;56.60;;;;;;5072741;28;20183;-87
2023/07/21 11:51:43;;;;;;;25.77;24.13;;;21.50;56.20;;;;;;5073042;28;20167;-87
2023/07/21 11:54:24;;;;;;;25.67;23.77;;;21.10;58.40;;;;;;5074119;28;20188;-87
2023/07/21 11:56:51;;;;;;;24.55;23.05;;;21.20;58.80;;;;;;5072613;28;20179;-87
2023/07/21 11:59:18;;;;;;;24.67;22.92;;;21.30;60.10;;;;;;5073998;28;20179;-87
2023/07/21 12:01:44;;;;;;;24.90;23.10;;;21.50;58.00;;;;;;5072389;28;20670;-86
2023/07/21 12:04:10;;;;;;;15.68;14.68;;;21.60;58.10;;;;;;5072775;28;20577;-87
2023/07/21 12:06:36;;;;;;;16.83;15.60;;;21.70;55.70;;;;;;5072329;28;20641;-87
2023/07/21 12:09:06;;;;;;;16.25;15.20;;;21.20;56.10;;;;;;5073468;28;20697;-87
2023/07/21 12:11:35;;;;;;;16.70;15.60;;;21.00;57.30;;;;;;5072210;28;20198;-86
2023/07/21 12:14:02;;;;;;;16.70;15.68;;;21.30;55.90;;;;;;5073763;28;20217;-87
2023/07/21 12:16:27;;;;;;;16.23;15.23;;;21.60;56.90;;;;;;5073665;28;20168;-87
2023/07/21 12:18:53;;;;;;;16.63;15.38;;;21.90;58.70;;;;;;5073828;28;20174;-87
2023/07/21 12:21:18;;;;;;;16.73;15.52;;;21.50;53.50;;;;;;5072686;28;20194;-87
2023/07/21 12:23:44;;;;;;;16.17;15.25;;;21.50;54.40;;;;;;5072426;28;20294;-86
2023/07/21 12:26:10;;;;;;;16.13;15.13;;;21.90;52.40;;;;;;5073708;28;20168;-86
2023/07/21 12:28:36;;;;;;;16.13;14.95;;;22.20;53.00;;;;;;5072319;28;20203;-86
2023/07/21 12:31:02;;;;;;;16.98;15.60;;;22.60;52.10;;;;;;5073236;28;20647;-86
2023/07/21 12:33:28;;;;;;;17.30;16.00;;;22.50;53.40;;;;;;5071801;28;20678;-86
2023/07/21 12:35:54;;;;;;;16.63;15.52;;;22.50;52.50;;;;;;5073177;28;20261;-85
2023/07/21 12:38:20;;;;;;;16.10;15.10;;;22.60;50.80;;;;;;5071845;28;20175;-86